Time;durP1;ratioP1;P1;durP2;ratioP2;P2;SDS_P1;SDS_P2;PMS_P1;PMS_P2;Temp;Humidity;BMP_temperature;BMP_pressure;BME280_temperature;BME280_humidity;BME280_pressure;Samples;Min_cycle;Max_cycle;Signal;HPM_P1;HPM_P2
2021/04/13 00:02:38;;;;;;;2.90;2.05;;;;;;;9.53;63.44;101823.66;4964227;28;97890;-59
2021/04/13 00:05:26;;;;;;;3.58;1.80;;;;;;;9.54;63.77;101822.59;4943931;28;98419;-59
2021/04/13 00:07:52;;;;;;;2.50;2.03;;;;;;;9.56;63.27;101817.00;4939619;28;120949;-62
2021/04/13 00:10:26;;;;;;;3.35;2.17;;;;;;;9.52;63.97;101813.13;4943413;28;113564;-62
2021/04/13 00:12:52;;;;;;;2.60;2.17;;;;;;;9.52;63.72;101821.19;4961975;28;98108;-59
2021/04/13 00:15:25;;;;;;;4.00;2.08;;;;;;;9.51;63.70;101831.16;4962805;28;98911;-60
2021/04/13 00:17:51;;;;;;;3.05;1.90;;;;;;;9.53;63.91;101834.41;4961437;28;98411;-59
2021/04/13 00:20:37;;;;;;;2.47;1.70;;;;;;;9.49;63.33;101830.53;4961551;28;97841;-62
2021/04/13 00:23:03;;;;;;;3.90;1.80;;;;;;;9.51;63.69;101828.44;4950198;28;98168;-62
2021/04/13 00:25:38;;;;;;;4.50;2.05;;;;;;;9.48;63.83;101838.84;4964677;28;126488;-62
2021/04/13 00:28:06;;;;;;;3.90;2.20;;;;;;;9.47;63.30;101840.72;4948044;28;98379;-59
2021/04/13 00:30:55;;;;;;;3.08;2.00;;;;;;;9.41;63.67;101841.63;4952152;28;111331;-59
2021/04/13 00:33:29;;;;;;;2.47;2.03;;;;;;;9.42;63.67;101845.94;4929544;28;97918;-62
2021/04/13 00:36:21;;;;;;;1.73;1.60;;;;;;;9.38;63.33;101843.94;4928350;28;98590;-59
2021/04/13 00:38:52;;;;;;;2.43;1.70;;;;;;;9.41;63.39;101840.78;4959056;28;128031;-63
2021/04/13 00:41:24;;;;;;;3.38;1.67;;;;;;;9.37;63.38;101837.72;4943906;28;97899;-62
2021/04/13 00:43:55;;;;;;;2.20;1.63;;;;;;;9.32;63.30;101840.28;4929946;28;97937;-59
2021/04/13 00:46:45;;;;;;;2.80;1.90;;;;;;;9.34;63.61;101832.78;4943774;28;98531;-62
2021/04/13 00:49:12;;;;;;;2.65;1.80;;;;;;;9.32;63.63;101833.03;4930245;28;98644;-59
2021/04/13 00:51:44;;;;;;;2.22;1.98;;;;;;;9.32;63.15;101837.59;4944335;28;98783;-60
2021/04/13 00:54:26;;;;;;;2.88;1.75;;;;;;;9.27;63.32;101840.13;4942497;28;97823;-63
2021/04/13 00:56:52;;;;;;;3.55;2.20;;;;;;;9.27;63.46;101835.56;4929801;28;99292;-62
2021/04/13 00:59:19;;;;;;;3.22;2.00;;;;;;;9.26;63.49;101830.41;4944012;28;99439;-60
2021/04/13 01:02:10;;;;;;;2.13;1.90;;;;;;;9.20;63.59;101832.16;4927105;28;121738;-62
2021/04/13 01:04:40;;;;;;;3.28;1.60;;;;;;;9.23;63.03;101833.53;4929334;28;97891;-59
2021/04/13 01:07:13;;;;;;;2.45;1.75;;;;;;;9.20;62.99;101826.78;4963429;28;98937;-59
2021/04/13 01:09:48;;;;;;;2.47;1.70;;;;;;;9.16;63.40;101836.34;4964862;28;115379;-60
2021/04/13 01:12:26;;;;;;;3.40;1.70;;;;;;;9.18;63.25;101828.84;4965952;28;99554;-59
2021/04/13 01:14:53;;;;;;;3.17;2.00;;;;;;;9.17;63.13;101829.09;4963077;28;104619;-62
2021/04/13 01:17:20;;;;;;;3.67;2.10;;;;;;;9.18;62.97;101836.91;4946512;28;115594;-59
2021/04/13 01:20:20;;;;;;;2.10;1.83;;;;;;;9.12;63.04;101832.44;4958837;28;113222;-62
2021/04/13 01:25:30;;;;;;;3.05;1.92;;;;;;;9.13;62.98;101833.28;4944228;28;97753;-62
2021/04/13 01:28:02;;;;;;;2.90;1.85;;;;;;;9.12;63.34;101832.44;4928621;28;104285;-62
2021/04/13 01:30:41;;;;;;;2.88;2.08;;;;;;;9.04;63.40;101833.56;4942752;28;98967;-62
2021/04/13 01:33:45;;;;;;;2.22;1.92;;;;;;;9.04;63.37;101838.13;4928724;28;98073;-59
2021/04/13 01:36:21;;;;;;;2.72;1.92;;;;;;;9.02;63.12;101843.72;4944738;28;98279;-62
2021/04/13 01:39:06;;;;;;;2.83;2.05;;;;;;;9.00;63.30;101832.38;4944818;28;98852;-59
2021/04/13 01:44:43;;;;;;;3.28;2.13;;;;;;;9.11;62.85;101841.53;4940283;28;98012;-59
2021/04/13 01:47:11;;;;;;;2.70;2.10;;;;;;;9.12;62.71;101836.97;4941057;28;97922;-59
2021/04/13 01:49:41;;;;;;;3.00;2.15;;;;;;;9.21;62.45;101839.16;4942603;28;98854;-59
2021/04/13 01:52:23;;;;;;;2.75;2.20;;;;;;;9.18;62.50;101842.28;4927582;28;97970;-60
2021/04/13 01:54:49;;;;;;;3.60;2.03;;;;;;;9.17;62.28;101843.34;4943488;28;98785;-62
2021/04/13 01:57:31;;;;;;;2.13;1.73;;;;;;;9.20;62.56;101842.09;4943173;28;103405;-62
2021/04/13 02:00:13;;;;;;;3.00;2.00;;;;;;;9.18;62.14;101844.16;4944211;28;98629;-62
2021/04/13 02:03:03;;;;;;;3.38;2.30;;;;;;;9.15;62.20;101841.91;4929617;28;98241;-62
2021/04/13 02:05:31;;;;;;;3.53;2.22;;;;;;;9.18;61.71;101845.00;4927463;28;98207;-62
2021/04/13 02:08:08;;;;;;;3.45;2.08;;;;;;;9.17;62.07;101839.84;4927212;28;97705;-62
2021/04/13 02:10:43;;;;;;;2.42;1.85;;;;;;;9.16;62.08;101839.03;4927409;28;98922;-62
2021/04/13 02:13:18;;;;;;;4.05;2.30;;;;;;;9.13;61.89;101850.22;4945320;28;98972;-62
2021/04/13 02:16:01;;;;;;;2.55;2.03;;;;;;;9.14;62.06;101848.34;4946222;28;98774;-62
2021/04/13 02:18:36;;;;;;;2.40;2.00;;;;;;;9.06;62.52;101857.53;4928499;28;97809;-62
2021/04/13 02:21:33;;;;;;;2.38;2.00;;;;;;;9.05;61.79;101845.97;4942376;28;98854;-59
2021/04/13 02:24:23;;;;;;;3.78;2.20;;;;;;;9.05;62.30;101858.59;4944073;28;117160;-62
2021/04/13 02:26:51;;;;;;;2.80;2.10;;;;;;;9.05;62.01;101855.91;4942709;28;98047;-59
2021/04/13 02:29:18;;;;;;;3.03;2.20;;;;;;;9.03;62.27;101856.13;4942961;28;98055;-62
2021/04/13 02:31:47;;;;;;;3.65;2.42;;;;;;;9.03;62.22;101861.50;4942484;28;98291;-62
2021/04/13 02:34:29;;;;;;;3.50;2.10;;;;;;;9.01;61.80;101857.41;4942388;28;99151;-61
2021/04/13 02:36:59;;;;;;;3.03;2.30;;;;;;;8.99;62.25;101859.47;4927155;28;117399;-62
2021/04/13 02:39:28;;;;;;;2.78;2.35;;;;;;;8.99;62.55;101862.97;4926886;28;97838;-62
2021/04/13 02:42:25;;;;;;;2.78;2.20;;;;;;;8.98;61.90;101871.28;4925497;28;98449;-59
2021/04/13 02:45:07;;;;;;;3.72;2.35;;;;;;;8.96;62.19;101868.84;4933927;28;98268;-59
2021/04/13 02:47:42;;;;;;;3.47;2.35;;;;;;;8.94;62.38;101865.53;4944428;28;98206;-59
2021/04/13 02:50:08;;;;;;;3.35;2.42;;;;;;;8.95;62.41;101867.16;4942999;28;99933;-60
2021/04/13 02:52:39;;;;;;;3.33;2.53;;;;;;;8.95;62.20;101867.16;4942096;28;109896;-59
2021/04/13 02:55:06;;;;;;;2.78;2.30;;;;;;;8.94;62.81;101868.22;4925664;28;97990;-59
2021/04/13 02:57:44;;;;;;;2.50;2.05;;;;;;;8.93;62.43;101876.53;4926196;28;97844;-62
2021/04/13 03:00:36;;;;;;;3.13;2.40;;;;;;;8.92;62.27;101872.16;4942511;28;98034;-62
2021/04/13 03:03:37;;;;;;;3.60;2.53;;;;;;;8.86;62.64;101876.56;4942182;28;98637;-62
2021/04/13 03:06:03;;;;;;;2.80;2.47;;;;;;;8.87;62.39;101875.53;4956744;28;119822;-62
2021/04/13 03:08:33;;;;;;;3.45;2.70;;;;;;;8.87;62.75;101878.22;4941920;28;113558;-60
2021/04/13 03:11:16;;;;;;;3.47;2.53;;;;;;;8.86;62.56;101876.56;4944372;28;98071;-62
2021/04/13 03:13:43;;;;;;;3.75;2.42;;;;;;;8.86;62.41;101876.56;4925560;28;99167;-62
2021/04/13 03:16:09;;;;;;;3.88;2.88;;;;;;;8.88;62.39;101882.53;4942012;28;98370;-62
2021/04/13 03:18:43;;;;;;;3.03;2.70;;;;;;;8.82;62.48;101873.50;4925214;28;113538;-60
2021/04/13 03:21:21;;;;;;;3.75;2.45;;;;;;;8.82;62.53;101878.88;4941706;28;98019;-62
2021/04/13 03:23:47;;;;;;;3.25;2.80;;;;;;;8.82;62.54;101886.94;4925400;28;98431;-60
2021/04/13 03:26:21;;;;;;;3.80;2.45;;;;;;;8.84;62.58;101889.41;4925011;28;114980;-60
2021/04/13 03:28:56;;;;;;;3.60;2.80;;;;;;;8.82;62.58;101895.00;4927254;28;98225;-60
2021/04/13 03:31:22;;;;;;;3.05;2.70;;;;;;;8.78;62.72;101893.00;4926860;28;98166;-60
2021/04/13 03:33:48;;;;;;;3.20;2.90;;;;;;;8.84;62.82;101900.16;4925380;28;104704;-60
2021/04/13 03:36:21;;;;;;;3.20;2.60;;;;;;;8.83;62.57;101893.97;4925118;28;98436;-63
2021/04/13 03:39:10;;;;;;;3.28;2.88;;;;;;;8.78;62.88;101895.69;4929047;28;110218;-60
2021/04/13 03:41:42;;;;;;;3.47;2.45;;;;;;;8.82;62.69;101895.00;4929208;28;97953;-60
2021/04/13 03:44:08;;;;;;;3.97;2.72;;;;;;;8.78;62.79;101904.56;4957622;28;98556;-62
2021/04/13 03:46:37;;;;;;;3.00;2.70;;;;;;;8.78;62.37;101896.50;4943005;28;116807;-60
2021/04/13 03:49:06;;;;;;;3.13;2.80;;;;;;;8.82;62.83;101904.94;4926358;28;98113;-60
2021/04/13 03:51:35;;;;;;;3.55;2.63;;;;;;;8.82;62.49;101895.00;4925319;28;101862;-62
2021/04/13 03:54:37;;;;;;;4.15;2.78;;;;;;;8.78;62.72;101901.88;4925513;28;111192;-60
2021/04/13 03:57:04;;;;;;;3.55;2.63;;;;;;;8.78;62.64;101903.75;4937248;28;98015;-62
2021/04/13 03:59:40;;;;;;;3.30;2.97;;;;;;;8.76;63.06;101908.50;4941116;28;98589;-62
2021/04/13 04:02:07;;;;;;;3.35;2.85;;;;;;;8.75;62.83;101913.06;4944159;28;98632;-60
2021/04/13 04:04:40;;;;;;;4.07;2.95;;;;;;;8.78;62.72;101906.44;4925291;28;98381;-62
2021/04/13 04:07:25;;;;;;;4.88;3.15;;;;;;;8.73;62.90;101908.97;4943706;28;97904;-62
2021/04/13 04:09:51;;;;;;;3.40;2.92;;;;;;;8.78;62.62;101915.31;4943018;28;98027;-62
2021/04/13 04:12:19;;;;;;;5.38;3.20;;;;;;;8.77;62.98;101905.63;4958961;28;112932;-60
2021/04/13 04:15:08;;;;;;;3.75;3.22;;;;;;;8.75;62.47;101904.19;4960295;28;99090;-60
2021/04/13 04:17:36;;;;;;;4.10;3.00;;;;;;;8.75;62.68;101909.56;4960625;28;116710;-60
2021/04/13 04:20:08;;;;;;;4.15;3.20;;;;;;;8.78;62.70;101914.50;4943951;28;104804;-62
2021/04/13 04:22:53;;;;;;;4.25;3.38;;;;;;;8.77;62.68;101902.13;4954355;28;98216;-60
2021/04/13 04:25:44;;;;;;;5.20;3.30;;;;;;;8.78;62.88;101920.69;4938442;28;98644;-60
2021/04/13 04:28:18;;;;;;;4.30;3.30;;;;;;;8.80;62.55;101920.47;4925064;28;98474;-63
2021/04/13 04:30:44;;;;;;;4.80;3.40;;;;;;;8.81;62.58;101916.75;4925088;28;104930;-62
2021/04/13 04:33:37;;;;;;;4.75;3.35;;;;;;;8.78;62.87;101922.56;4943320;28;97809;-60
2021/04/13 04:36:29;;;;;;;4.28;3.63;;;;;;;8.79;62.46;101921.53;4942980;28;98597;-62
2021/04/13 04:38:55;;;;;;;5.03;3.38;;;;;;;8.83;62.42;101931.59;4942105;28;101763;-60
2021/04/13 04:41:40;;;;;;;4.40;3.50;;;;;;;8.81;62.70;101922.13;4954476;28;105294;-60
2021/04/13 04:44:07;;;;;;;4.60;3.30;;;;;;;8.86;62.48;101930.34;4959757;28;97891;-63
2021/04/13 04:46:42;;;;;;;4.32;3.38;;;;;;;8.85;62.85;101931.41;4924092;28;99121;-59
2021/04/13 04:49:13;;;;;;;4.80;3.58;;;;;;;8.91;62.91;101941.25;4958515;28;99458;-62
2021/04/13 04:51:39;;;;;;;4.30;3.60;;;;;;;8.91;62.76;101935.06;4958549;28;97920;-60
2021/04/13 04:54:06;;;;;;;4.78;3.55;;;;;;;8.96;62.67;101938.75;4958559;28;104968;-60
2021/04/13 04:56:32;;;;;;;4.13;3.60;;;;;;;8.91;62.84;101940.44;4958412;28;99283;-63
2021/04/13 04:58:58;;;;;;;5.18;4.00;;;;;;;8.96;63.02;101946.81;4958225;28;99479;-63
2021/04/13 05:01:24;;;;;;;5.25;4.10;;;;;;;8.96;63.05;101949.53;4957737;28;126220;-59
2021/04/13 05:03:51;;;;;;;4.28;3.88;;;;;;;9.04;62.54;101949.22;4954721;28;111882;-62
2021/04/13 05:06:18;;;;;;;4.40;3.97;;;;;;;9.03;63.19;101944.88;4959859;28;98316;-59
2021/04/13 05:08:45;;;;;;;5.20;4.10;;;;;;;9.10;62.65;101942.13;4963301;28;98337;-62
2021/04/13 05:11:11;;;;;;;4.70;3.88;;;;;;;9.15;62.95;101944.16;4944536;28;113731;-62
2021/04/13 05:13:37;;;;;;;6.15;4.70;;;;;;;9.21;62.72;101944.09;4946955;28;97802;-60
2021/04/13 05:16:03;;;;;;;4.57;4.18;;;;;;;9.22;63.17;101955.69;4945166;28;104739;-60
2021/04/13 05:18:29;;;;;;;6.00;4.25;;;;;;;9.31;62.51;101947.13;4950664;28;115250;-62
2021/04/13 05:20:55;;;;;;;5.22;4.30;;;;;;;9.37;62.88;101949.94;4965158;28;97989;-61
2021/04/13 05:23:22;;;;;;;5.55;4.50;;;;;;;9.46;62.85;101946.72;4966212;28;97888;-60
2021/04/13 05:25:48;;;;;;;4.82;4.15;;;;;;;9.49;62.25;101953.53;4965798;28;98489;-60
2021/04/13 05:28:14;;;;;;;6.10;4.72;;;;;;;9.56;62.39;101952.41;4963498;28;100357;-60
2021/04/13 05:30:40;;;;;;;5.30;4.68;;;;;;;9.67;62.15;101947.31;4963229;28;97984;-60
2021/04/13 05:33:06;;;;;;;5.05;4.50;;;;;;;9.69;62.58;101953.31;4966116;28;98271;-60
2021/04/13 05:35:32;;;;;;;5.25;4.55;;;;;;;9.77;62.38;101950.31;4964217;28;128621;-60
2021/04/13 05:38:02;;;;;;;5.35;4.55;;;;;;;9.82;62.48;101956.69;4965819;28;98250;-60
2021/04/13 05:40:31;;;;;;;4.93;4.43;;;;;;;9.86;62.10;101957.03;4963189;28;98670;-60
2021/04/13 05:42:58;;;;;;;5.88;4.60;;;;;;;9.91;62.61;101967.97;4964974;28;97896;-60
2021/04/13 05:45:26;;;;;;;5.32;4.60;;;;;;;9.94;62.58;101964.81;4946106;28;118520;-62
2021/04/13 05:47:52;;;;;;;5.60;4.80;;;;;;;9.97;62.55;101964.34;4959908;28;98720;-62
2021/04/13 05:50:26;;;;;;;4.97;4.53;;;;;;;10.05;62.74;101960.50;4942449;28;126290;-62
2021/04/13 05:52:52;;;;;;;5.60;5.00;;;;;;;10.19;62.30;101956.59;4945292;28;104523;-60
2021/04/13 05:55:18;;;;;;;5.90;5.20;;;;;;;10.21;61.50;101957.19;4944167;28;127566;-60
2021/04/13 05:57:46;;;;;;;5.70;5.00;;;;;;;10.23;61.97;101960.47;4945041;28;104525;-62
2021/04/13 06:00:12;;;;;;;5.65;5.05;;;;;;;10.28;62.07;101963.34;4926807;28;97864;-60
2021/04/13 06:02:40;;;;;;;5.50;4.97;;;;;;;10.34;62.06;101968.88;4954059;28;97852;-62
2021/04/13 06:05:07;;;;;;;5.03;4.53;;;;;;;10.40;61.76;101970.63;4944022;28;103057;-60
2021/04/13 06:07:33;;;;;;;5.93;5.15;;;;;;;10.53;61.31;101979.38;4926319;28;118477;-62
2021/04/13 06:09:59;;;;;;;5.13;4.63;;;;;;;10.59;62.13;101979.50;4943993;28;127635;-60
2021/04/13 06:12:25;;;;;;;5.15;4.65;;;;;;;10.66;61.95;101978.34;4945185;28;110702;-60
2021/04/13 06:14:52;;;;;;;5.63;5.10;;;;;;;10.84;60.85;101982.81;4944057;28;127038;-60
2021/04/13 06:17:18;;;;;;;5.88;4.88;;;;;;;10.97;61.21;101985.31;4945182;28;97645;-60
2021/04/13 06:19:44;;;;;;;6.07;4.47;;;;;;;11.10;60.54;101980.75;4944521;28;98631;-60
2021/04/13 06:22:11;;;;;;;5.45;4.95;;;;;;;11.21;60.58;101980.75;4943958;28;113729;-63
2021/04/13 06:24:37;;;;;;;5.20;4.47;;;;;;;11.42;60.19;101982.00;4944375;28;98480;-62
2021/04/13 06:27:04;;;;;;;6.07;5.47;;;;;;;11.49;60.73;101982.72;4945136;28;99107;-63
2021/04/13 06:29:33;;;;;;;5.63;5.05;;;;;;;11.60;60.38;101977.56;4942919;28;98289;-60
2021/04/13 06:32:00;;;;;;;5.72;5.13;;;;;;;11.72;60.21;101976.47;4945445;28;98101;-60
2021/04/13 06:34:26;;;;;;;5.72;5.18;;;;;;;11.90;60.17;101980.06;4944658;28;98624;-63
2021/04/13 06:36:52;;;;;;;5.70;5.20;;;;;;;12.08;59.63;101979.09;4944175;28;113309;-62
2021/04/13 06:39:18;;;;;;;6.15;5.25;;;;;;;12.29;58.90;101979.22;4941039;28;126280;-60
2021/04/13 06:42:10;;;;;;;5.60;4.95;;;;;;;12.47;58.62;101980.91;4942857;28;112027;-60
2021/04/13 06:45:04;;;;;;;6.07;5.47;;;;;;;12.83;57.71;101978.81;4944009;28;98489;-63
2021/04/13 06:48:05;;;;;;;5.22;4.80;;;;;;;13.21;57.27;101980.75;4942813;28;99258;-63
2021/04/13 06:50:44;;;;;;;6.18;5.10;;;;;;;13.51;56.63;101979.56;4942734;28;97974;-63
2021/04/13 06:53:43;;;;;;;5.65;5.15;;;;;;;13.73;56.43;101976.88;4928150;28;97928;-60
2021/04/13 06:56:39;;;;;;;5.35;4.85;;;;;;;13.84;56.63;101978.66;4930219;28;98997;-63
2021/04/13 06:59:30;;;;;;;5.43;4.93;;;;;;;14.01;56.17;101986.72;4948022;28;103508;-63
2021/04/13 07:02:06;;;;;;;5.63;5.07;;;;;;;14.06;56.33;101981.34;4964618;28;98144;-60
2021/04/13 07:04:59;;;;;;;4.97;4.47;;;;;;;14.24;56.09;101972.06;4946459;28;98386;-63
2021/04/13 07:07:54;;;;;;;5.53;4.82;;;;;;;14.53;55.83;101974.53;4962232;28;98160;-63
2021/04/13 07:10:30;;;;;;;5.20;4.70;;;;;;;14.57;55.58;101973.75;4956188;28;113932;-63
2021/04/13 07:13:37;;;;;;;4.90;4.40;;;;;;;14.79;55.22;101975.56;4925136;28;120741;-63
2021/04/13 07:16:21;;;;;;;4.93;4.53;;;;;;;14.87;55.50;101970.47;4928939;28;104243;-63
2021/04/13 07:19:18;;;;;;;5.22;4.72;;;;;;;15.23;54.38;101968.00;4942184;28;98503;-63
2021/04/13 07:22:20;;;;;;;5.10;4.60;;;;;;;15.42;54.06;101979.25;4942238;28;98620;-60
2021/04/13 07:25:12;;;;;;;4.80;4.40;;;;;;;15.65;53.81;101973.44;4942761;28;97964;-60
2021/04/13 07:28:03;;;;;;;4.55;4.15;;;;;;;15.91;53.02;101976.25;4929436;28;97915;-63
2021/04/13 07:30:43;;;;;;;4.97;4.53;;;;;;;16.16;52.55;101972.81;4926307;28;98910;-63
2021/04/13 07:33:13;;;;;;;5.60;4.10;;;;;;;16.26;52.49;101974.72;4960087;28;99179;-60
2021/04/13 07:35:39;;;;;;;4.43;4.03;;;;;;;16.53;51.80;101978.00;4961039;28;98058;-63
2021/04/13 07:38:29;;;;;;;4.78;4.38;;;;;;;16.80;51.67;101975.06;4945330;28;98090;-61
2021/04/13 07:41:01;;;;;;;4.72;4.10;;;;;;;16.96;51.56;101969.63;4962257;28;110510;-63
2021/04/13 07:43:47;;;;;;;4.47;4.07;;;;;;;17.16;51.11;101970.41;4944472;28;98433;-61
2021/04/13 07:46:46;;;;;;;4.38;3.75;;;;;;;17.43;50.51;101972.78;4946372;28;98588;-61
2021/04/13 07:49:25;;;;;;;3.97;3.63;;;;;;;17.65;49.81;101975.19;4962622;28;98059;-61
2021/04/13 07:51:59;;;;;;;3.95;3.53;;;;;;;17.63;50.49;101976.53;4961471;28;107519;-64
2021/04/13 07:54:39;;;;;;;3.55;3.05;;;;;;;18.10;49.10;101973.34;4945229;28;98600;-61
2021/04/13 07:58:04;;;;;;;3.58;3.17;;;;;;;19.06;47.45;101965.56;4946299;28;98174;-64
2021/04/13 08:00:33;;;;;;;3.13;2.63;;;;;;;19.28;46.95;101964.22;4946667;28;98339;-64
2021/04/13 08:03:29;;;;;;;2.80;2.60;;;;;;;20.21;45.44;101968.28;4941492;28;98875;-64
2021/04/13 08:05:57;;;;;;;5.32;2.60;;;;;;;20.99;44.28;101977.72;4943067;28;98988;-61
2021/04/13 08:08:41;;;;;;;2.58;2.38;;;;;;;21.55;43.51;101971.19;4941722;28;97974;-64
2021/04/13 08:11:22;;;;;;;2.30;2.10;;;;;;;21.46;43.43;101983.19;4924585;28;113602;-64
2021/04/13 08:13:50;;;;;;;2.53;2.20;;;;;;;21.54;43.45;101982.47;4943656;28;98227;-64
2021/04/13 08:16:38;;;;;;;2.20;1.70;;;;;;;22.47;41.88;101976.59;4940921;28;98278;-61
2021/04/13 08:19:32;;;;;;;2.78;1.60;;;;;;;23.50;40.11;101976.41;4943315;28;98391;-64
2021/04/13 08:22:10;;;;;;;2.13;1.30;;;;;;;22.45;41.90;101989.84;4943065;28;98114;-65
2021/04/13 08:24:43;;;;;;;2.38;1.23;;;;;;;21.97;42.29;101982.94;4942750;28;99341;-61
2021/04/13 08:27:13;;;;;;;2.47;1.10;;;;;;;23.07;40.38;101978.13;4944271;28;99249;-61
2021/04/13 08:30:09;;;;;;;1.70;1.25;;;;;;;24.41;38.45;101976.75;4961099;28;108456;-64
2021/04/13 08:32:55;;;;;;;1.85;0.80;;;;;;;25.81;36.79;101983.47;4946460;28;97813;-61
2021/04/13 08:35:37;;;;;;;1.67;0.85;;;;;;;25.32;37.79;101985.81;4962422;28;98322;-62
2021/04/13 08:38:19;;;;;;;1.55;0.68;;;;;;;24.06;40.18;101984.97;4960995;28;99104;-61
2021/04/13 08:41:16;;;;;;;1.45;0.60;;;;;;;25.47;37.50;101976.97;4962075;28;97939;-62
2021/04/13 08:44:16;;;;;;;1.48;0.70;;;;;;;23.96;39.88;101982.53;4965275;28;97903;-64
2021/04/13 08:47:12;;;;;;;1.45;0.60;;;;;;;24.36;38.63;101982.38;4964851;28;98550;-62
2021/04/13 08:49:44;;;;;;;1.70;0.55;;;;;;;23.07;40.97;101978.97;4964227;28;98448;-65
2021/04/13 08:52:20;;;;;;;1.58;0.70;;;;;;;23.57;40.06;101988.88;4967040;28;98112;-61
2021/04/13 08:54:48;;;;;;;1.38;0.57;;;;;;;23.01;41.35;101977.47;4964672;28;97974;-64
2021/04/13 08:57:28;;;;;;;1.52;0.57;;;;;;;22.14;43.01;101978.75;4948349;28;99031;-64
2021/04/13 08:59:56;;;;;;;1.92;0.70;;;;;;;22.62;41.69;101969.94;4944852;28;98401;-64
2021/04/13 09:02:38;;;;;;;1.63;0.70;;;;;;;21.50;43.79;101979.53;4927981;28;97871;-61
2021/04/13 09:05:23;;;;;;;1.33;0.68;;;;;;;20.48;45.85;101989.50;4946157;28;98012;-64
2021/04/13 09:07:56;;;;;;;1.90;0.70;;;;;;;22.83;41.22;101971.03;4946404;28;98495;-64
2021/04/13 09:10:48;;;;;;;1.77;0.63;;;;;;;23.52;40.50;101965.06;4960082;28;98295;-64
2021/04/13 09:13:38;;;;;;;1.38;0.63;;;;;;;25.19;38.13;101963.63;4964223;28;98297;-64
2021/04/13 09:16:08;;;;;;;1.42;0.65;;;;;;;24.76;39.04;101968.41;4963244;28;97898;-61
2021/04/13 09:19:01;;;;;;;1.45;0.63;;;;;;;23.97;40.25;101973.13;4966177;28;98584;-64
2021/04/13 09:21:43;;;;;;;0.88;0.40;;;;;;;25.19;38.73;101960.88;4946963;28;98387;-62
2021/04/13 09:24:19;;;;;;;1.37;0.50;;;;;;;26.52;36.84;101961.28;4942908;28;98754;-65
2021/04/13 09:26:57;;;;;;;1.52;0.43;;;;;;;26.08;37.25;101960.84;4946824;28;97892;-65
2021/04/13 09:29:46;;;;;;;0.90;0.40;;;;;;;27.78;35.11;101949.69;4961668;28;98657;-62
2021/04/13 09:32:24;;;;;;;0.93;0.32;;;;;;;25.52;38.11;101957.47;4965637;28;98316;-65
2021/04/13 09:35:24;;;;;;;1.40;0.50;;;;;;;24.33;40.24;101958.25;4965287;28;98064;-65
2021/04/13 09:38:23;;;;;;;1.95;0.40;;;;;;;26.27;36.21;101945.75;4965253;28;97823;-61
2021/04/13 09:41:30;;;;;;;1.10;0.40;;;;;;;24.64;38.92;101953.38;4953032;28;99403;-61
2021/04/13 09:44:17;;;;;;;1.10;0.40;;;;;;;23.92;40.38;101951.25;4965052;28;98934;-61
2021/04/13 09:46:59;;;;;;;1.33;0.45;;;;;;;22.97;41.54;101949.81;4963533;28;110223;-61
2021/04/13 09:49:48;;;;;;;1.95;0.40;;;;;;;26.14;35.94;101944.88;4963914;28;97854;-65
2021/04/13 09:52:55;;;;;;;1.25;0.40;;;;;;;29.35;31.38;101940.13;4963380;28;99278;-61
2021/04/13 09:55:50;;;;;;;0.70;0.30;;;;;;;30.91;29.70;101941.81;4964586;28;98612;-62
2021/04/13 09:58:47;;;;;;;1.10;0.28;;;;;;;29.90;30.75;101952.13;4946743;28;97897;-65
2021/04/13 10:02:03;;;;;;;0.90;0.25;;;;;;;28.34;33.18;101945.03;4945901;28;97944;-62
2021/04/13 10:04:44;;;;;;;0.77;0.40;;;;;;;28.02;33.00;101923.88;4943860;28;98526;-65
2021/04/13 10:07:25;;;;;;;1.00;0.37;;;;;;;31.56;28.59;101918.59;4927796;28;98660;-62
2021/04/13 10:09:51;;;;;;;1.10;0.30;;;;;;;32.72;27.21;101917.59;4945049;28;97827;-66
2021/04/13 10:13:04;;;;;;;1.17;0.40;;;;;;;29.47;30.93;101928.09;4947183;28;97688;-59
2021/04/13 10:16:07;;;;;;;1.15;0.35;;;;;;;26.99;34.88;101929.72;4945000;28;98956;-59
2021/04/13 10:19:16;;;;;;;1.25;0.40;;;;;;;27.17;33.97;101920.88;4958849;28;98892;-65
2021/04/13 10:22:01;;;;;;;1.25;0.40;;;;;;;25.59;36.39;101929.34;4927073;28;117792;-65
2021/04/13 10:25:05;;;;;;;0.68;0.30;;;;;;;24.87;37.75;101926.38;4945214;28;97869;-61
2021/04/13 10:28:13;;;;;;;1.60;0.30;;;;;;;24.40;38.29;101926.31;4950362;28;98431;-61
2021/04/13 10:31:05;;;;;;;2.05;0.30;;;;;;;26.65;34.57;101902.13;4942616;28;115274;-61
2021/04/13 10:33:39;;;;;;;1.25;0.40;;;;;;;26.89;34.02;101906.09;4944602;28;97653;-61
2021/04/13 10:36:39;;;;;;;1.10;0.30;;;;;;;31.40;27.83;101895.66;4944967;28;97765;-62
2021/04/13 10:39:39;;;;;;;0.70;0.20;;;;;;;31.02;28.37;101903.03;4944577;28;99485;-62
2021/04/13 10:42:39;;;;;;;0.93;0.20;;;;;;;28.86;31.29;101894.13;4943194;28;98465;-62
2021/04/13 10:45:50;;;;;;;0.65;0.20;;;;;;;28.38;32.29;101896.06;4944162;28;98374;-64
2021/04/13 10:48:51;;;;;;;1.30;0.20;;;;;;;27.56;32.80;101898.38;4953202;28;98097;-61
2021/04/13 10:51:53;;;;;;;1.05;0.20;;;;;;;26.00;35.55;101900.94;4964154;28;99027;-64
2021/04/13 10:55:06;;;;;;;1.13;0.38;;;;;;;29.29;30.42;101886.06;4961695;28;112176;-62
2021/04/13 10:58:15;;;;;;;0.90;0.30;;;;;;;31.37;27.86;101888.09;4953224;28;97897;-61
2021/04/13 11:01:11;;;;;;;0.60;0.20;;;;;;;28.44;31.68;101899.38;4962847;28;97868;-65
2021/04/13 11:04:30;;;;;;;0.77;0.20;;;;;;;29.19;30.92;101884.63;4948889;28;99126;-65
2021/04/13 11:07:23;;;;;;;0.60;0.10;;;;;;;29.43;30.73;101889.16;4939861;28;98509;-61
2021/04/13 11:10:04;;;;;;;0.50;0.15;;;;;;;31.00;28.66;101885.88;4944222;28;97712;-65
2021/04/13 11:13:01;;;;;;;1.40;0.20;;;;;;;31.39;28.38;101874.56;4945040;28;97880;-65
2021/04/13 11:16:02;;;;;;;0.68;0.10;;;;;;;32.19;27.44;101873.22;4943595;28;97868;-65
2021/04/13 11:18:56;;;;;;;1.10;0.10;;;;;;;33.58;26.14;101875.53;4944196;28;98466;-59
2021/04/13 11:21:59;;;;;;;1.45;0.10;;;;;;;31.17;28.54;101877.03;4941819;28;98211;-60
2021/04/13 11:25:07;;;;;;;0.60;0.10;;;;;;;29.73;30.60;101886.66;4944705;28;97959;-59
2021/04/13 11:28:21;;;;;;;0.60;0.10;;;;;;;29.69;29.98;101874.69;4942452;28;98369;-59
2021/04/13 11:31:02;;;;;;;0.50;0.10;;;;;;;31.15;28.69;101870.22;4941626;28;98688;-59
2021/04/13 11:33:43;;;;;;;0.40;0.10;;;;;;;30.11;29.42;101868.41;4944821;28;98009;-59
2021/04/13 11:36:49;;;;;;;0.83;0.10;;;;;;;28.21;32.16;101878.91;4943986;28;101318;-61
2021/04/13 11:39:44;;;;;;;1.10;0.10;;;;;;;26.32;34.70;101871.72;4934296;28;100467;-61
2021/04/13 11:42:30;;;;;;;1.05;0.10;;;;;;;25.26;35.84;101872.06;4927733;28;120290;-64
2021/04/13 11:45:16;;;;;;;0.60;0.10;;;;;;;25.74;35.16;101867.19;4948348;28;98688;-62
2021/04/13 11:48:03;;;;;;;0.47;0.10;;;;;;;26.13;34.79;101860.38;4941854;28;103792;-65
2021/04/13 11:50:47;;;;;;;0.52;0.10;;;;;;;25.66;36.71;101853.13;4940084;28;98654;-61
2021/04/13 11:53:44;;;;;;;1.23;0.20;;;;;;;24.94;37.72;101857.75;4962422;28;98507;-61
2021/04/13 11:56:22;;;;;;;1.40;0.10;;;;;;;24.11;39.13;101858.13;4957448;28;100873;-61
2021/04/13 11:59:16;;;;;;;0.95;0.10;;;;;;;23.50;39.52;101863.59;4962879;28;97839;-61
2021/04/13 12:02:30;;;;;;;0.68;0.10;;;;;;;23.09;40.26;101866.72;4955115;28;99152;-61
2021/04/13 12:04:57;;;;;;;0.73;0.20;;;;;;;22.90;40.43;101869.69;4925569;28;98596;-64
2021/04/13 12:07:45;;;;;;;1.02;0.13;;;;;;;22.69;40.75;101863.13;4924961;28;98031;-64
2021/04/13 12:10:33;;;;;;;1.15;0.20;;;;;;;22.33;41.30;101857.78;4943580;28;97866;-61
2021/04/13 12:13:00;;;;;;;0.68;0.10;;;;;;;21.93;41.85;101860.31;4946693;28;98305;-64
2021/04/13 12:15:26;;;;;;;1.48;0.20;;;;;;;21.72;41.91;101868.22;4963053;28;98749;-64
2021/04/13 12:17:58;;;;;;;1.27;0.20;;;;;;;21.38;41.80;101865.94;4966418;28;97926;-61
2021/04/13 12:20:28;;;;;;;1.55;0.20;;;;;;;21.57;41.41;101852.91;4964317;28;99025;-64
2021/04/13 12:22:54;;;;;;;1.38;0.20;;;;;;;22.05;40.82;101855.13;4953192;28;98249;-61
2021/04/13 12:25:52;;;;;;;1.70;0.20;;;;;;;21.91;40.56;101846.13;4946430;28;98639;-64
2021/04/13 12:28:30;;;;;;;0.88;0.20;;;;;;;21.57;41.43;101850.19;4946782;28;98218;-64
2021/04/13 12:31:05;;;;;;;0.88;0.20;;;;;;;21.19;41.70;101853.16;4946982;28;97838;-64
2021/04/13 12:33:31;;;;;;;0.90;0.17;;;;;;;20.92;42.59;101859.47;4960598;28;98463;-64